Time;durP1;ratioP1;P1;durP2;ratioP2;P2;SDS_P1;SDS_P2;PMS_P1;PMS_P2;Temp;Humidity;BMP_temperature;BMP_pressure;BME280_temperature;BME280_humidity;BME280_pressure;Samples;Min_cycle;Max_cycle;Signal;HPM_P1;HPM_P2
2021/06/10 00:02:05;;;;;;;6.80;3.67;;;19.40;89.30;;;;;;5090603;28;20500;-86
2021/06/10 00:04:31;;;;;;;9.60;3.63;;;19.40;89.40;;;;;;5090723;28;20124;-86
2021/06/10 00:06:57;;;;;;;9.77;3.83;;;19.40;89.50;;;;;;5090523;28;20031;-86
2021/06/10 00:09:23;;;;;;;7.75;3.65;;;19.40;89.60;;;;;;5090034;28;20024;-86
2021/06/10 00:11:48;;;;;;;8.20;3.30;;;19.30;89.50;;;;;;5090538;28;20097;-86
2021/06/10 00:14:14;;;;;;;8.73;3.70;;;19.30;89.40;;;;;;5090479;28;20115;-85
2021/06/10 00:16:40;;;;;;;10.82;4.28;;;19.20;89.50;;;;;;5090539;28;20056;-86
2021/06/10 00:19:07;;;;;;;6.82;3.85;;;19.20;89.60;;;;;;5093726;28;20468;-85
2021/06/10 00:21:33;;;;;;;8.73;3.90;;;19.20;90.00;;;;;;5094370;28;20024;-85
2021/06/10 00:23:59;;;;;;;10.73;4.10;;;19.20;90.10;;;;;;5094532;28;20496;-85
2021/06/10 00:26:24;;;;;;;10.80;3.70;;;19.10;90.20;;;;;;5095731;28;20103;-85
2021/06/10 00:28:50;;;;;;;8.25;3.60;;;19.10;90.10;;;;;;5093942;28;20053;-86
2021/06/10 00:31:16;;;;;;;7.63;3.58;;;19.10;90.40;;;;;;5094083;28;20032;-86
2021/06/10 00:33:41;;;;;;;8.32;3.60;;;19.00;90.50;;;;;;5095453;28;20103;-86
2021/06/10 00:36:07;;;;;;;7.90;3.75;;;19.00;90.60;;;;;;5095414;28;20153;-85
2021/06/10 00:38:33;;;;;;;11.93;3.80;;;18.90;90.70;;;;;;5093928;28;20469;-86
2021/06/10 00:40:58;;;;;;;8.88;4.18;;;18.80;90.90;;;;;;5093706;28;20032;-84
2021/06/10 00:43:24;;;;;;;8.10;3.70;;;18.90;90.70;;;;;;5095309;28;20028;-86
2021/06/10 00:45:50;;;;;;;7.63;4.00;;;18.90;90.70;;;;;;5094084;28;20078;-86
2021/06/10 00:48:15;;;;;;;9.38;3.97;;;18.70;91.20;;;;;;5093797;28;20035;-86
2021/06/10 00:50:44;;;;;;;9.98;4.20;;;18.70;91.00;;;;;;5093530;28;20407;-85
2021/06/10 00:53:20;;;;;;;8.23;4.30;;;18.70;91.10;;;;;;5094979;28;20032;-86
2021/06/10 00:55:57;;;;;;;7.47;3.47;;;18.70;91.10;;;;;;5093805;28;20032;-86
2021/06/10 00:58:23;;;;;;;8.50;3.88;;;18.60;91.20;;;;;;5093856;28;20115;-86
2021/06/10 01:00:49;;;;;;;11.02;4.22;;;18.70;91.20;;;;;;5093142;28;20469;-86
2021/06/10 01:03:15;;;;;;;9.85;3.85;;;18.60;91.10;;;;;;5094796;28;20031;-86
2021/06/10 01:05:43;;;;;;;8.43;4.05;;;18.60;91.10;;;;;;5093927;28;20077;-85
2021/06/10 01:08:26;;;;;;;10.38;3.70;;;18.60;91.20;;;;;;5094702;28;20021;-85
2021/06/10 01:11:10;;;;;;;9.80;4.03;;;18.60;91.30;;;;;;5094184;28;20035;-86
2021/06/10 01:14:09;;;;;;;7.38;3.53;;;18.70;91.50;;;;;;5093497;28;20422;-86
2021/06/10 01:16:37;;;;;;;9.95;4.25;;;18.60;91.70;;;;;;5093596;28;20031;-86
2021/06/10 01:19:18;;;;;;;9.23;4.13;;;18.60;92.00;;;;;;5092626;28;20078;-86
2021/06/10 01:21:45;;;;;;;8.40;3.83;;;18.50;92.20;;;;;;5093428;28;20024;-85
2021/06/10 01:24:42;;;;;;;7.40;4.20;;;18.60;92.40;;;;;;5094463;28;20540;-86
2021/06/10 01:27:29;;;;;;;10.70;4.00;;;18.50;92.50;;;;;;5093301;28;20388;-85
2021/06/10 01:30:09;;;;;;;7.97;3.90;;;18.40;92.70;;;;;;5093236;28;20016;-86
2021/06/10 01:32:38;;;;;;;6.80;4.10;;;18.40;92.80;;;;;;5093854;28;20027;-85
2021/06/10 01:35:05;;;;;;;9.25;3.70;;;18.30;92.80;;;;;;5094272;28;20024;-85
2021/06/10 01:37:32;;;;;;;9.07;4.10;;;18.30;92.90;;;;;;5092770;28;20110;-85
2021/06/10 01:40:00;;;;;;;7.72;3.90;;;18.30;93.00;;;;;;5092456;28;20028;-86
2021/06/10 01:42:27;;;;;;;7.20;3.90;;;18.30;92.90;;;;;;5092942;28;20024;-86
2021/06/10 01:44:56;;;;;;;12.90;3.95;;;18.30;93.10;;;;;;5094130;28;20024;-86
2021/06/10 01:47:22;;;;;;;6.10;3.90;;;18.30;93.10;;;;;;5092825;28;20426;-86
2021/06/10 01:49:50;;;;;;;8.68;4.00;;;18.30;93.10;;;;;;5093694;28;20028;-85
2021/06/10 01:52:19;;;;;;;6.78;3.80;;;18.20;93.10;;;;;;5094074;28;20476;-87
2021/06/10 01:54:45;;;;;;;;;;;18.20;93.30;;;;;;5093202;28;20024;-85
2021/06/10 01:57:13;;;;;;;9.63;3.65;;;18.20;93.30;;;;;;5092710;28;20261;-86
2021/06/10 01:59:38;;;;;;;6.47;3.80;;;18.10;93.20;;;;;;5091858;28;20035;-86
2021/06/10 02:02:06;;;;;;;8.05;3.90;;;18.00;93.70;;;;;;5092454;28;20123;-86
2021/06/10 02:04:33;;;;;;;7.03;3.95;;;18.00;93.50;;;;;;5092503;28;20028;-86
2021/06/10 02:07:00;;;;;;;7.82;4.07;;;18.00;93.60;;;;;;5092571;28;20115;-85
2021/06/10 02:09:27;;;;;;;8.50;4.20;;;18.00;93.70;;;;;;5091727;28;20089;-86
2021/06/10 02:11:53;;;;;;;10.50;4.18;;;18.00;93.90;;;;;;5092198;28;20036;-86
2021/06/10 02:14:19;;;;;;;9.10;4.80;;;18.00;93.80;;;;;;5092235;28;20032;-86
2021/06/10 02:16:47;;;;;;;8.65;3.95;;;18.00;93.90;;;;;;5092207;28;20070;-86
2021/06/10 02:19:15;;;;;;;9.43;4.15;;;18.00;94.10;;;;;;5091556;28;20028;-86
2021/06/10 02:21:41;;;;;;;8.60;4.10;;;17.90;93.90;;;;;;5093240;28;20473;-86
2021/06/10 02:24:10;;;;;;;8.20;4.10;;;17.90;94.10;;;;;;5093194;28;20077;-86
2021/06/10 02:26:36;;;;;;;11.45;4.30;;;17.90;94.00;;;;;;5090957;28;20072;-86
2021/06/10 02:29:02;;;;;;;7.25;4.50;;;17.90;93.90;;;;;;5090967;28;20032;-86
2021/06/10 02:31:27;;;;;;;8.45;4.10;;;17.90;94.00;;;;;;5093254;28;20103;-85
2021/06/10 02:33:53;;;;;;;9.25;4.15;;;17.90;94.10;;;;;;5093185;28;20484;-86
2021/06/10 02:36:19;;;;;;;8.45;4.28;;;17.80;94.10;;;;;;5093488;28;20103;-86
2021/06/10 02:38:50;;;;;;;6.85;4.00;;;17.90;94.10;;;;;;5091919;28;20047;-86
2021/06/10 02:41:17;;;;;;;7.60;4.25;;;17.80;94.20;;;;;;5093035;28;20020;-86
2021/06/10 02:43:44;;;;;;;11.88;4.30;;;17.70;94.30;;;;;;5094486;28;20024;-86
2021/06/10 02:46:13;;;;;;;7.85;3.90;;;17.80;94.30;;;;;;5092077;28;20451;-85
2021/06/10 02:48:39;;;;;;;;;;;17.70;94.30;;;;;;5092047;28;20480;-86
2021/06/10 02:51:06;;;;;;;9.60;4.15;;;17.70;94.20;;;;;;5091304;28;19943;-86
2021/06/10 02:53:32;;;;;;;6.97;3.90;;;17.70;94.20;;;;;;5091617;28;20024;-85
2021/06/10 02:56:04;;;;;;;9.48;4.28;;;17.60;94.30;;;;;;5092745;28;20024;-86
2021/06/10 02:58:32;;;;;;;7.82;4.07;;;17.70;94.40;;;;;;5091552;28;20031;-85
2021/06/10 03:00:59;;;;;;;9.48;3.78;;;17.60;94.40;;;;;;5090782;28;20400;-85
2021/06/10 03:03:25;;;;;;;6.55;3.63;;;17.60;94.60;;;;;;5091505;28;20476;-85
2021/06/10 03:05:52;;;;;;;6.45;3.85;;;17.60;94.60;;;;;;5091422;28;20480;-86
2021/06/10 03:08:19;;;;;;;9.82;4.07;;;17.60;94.70;;;;;;5091236;28;20393;-86
2021/06/10 03:10:47;;;;;;;6.95;3.95;;;17.50;94.90;;;;;;5090789;28;20024;-85
2021/06/10 03:13:15;;;;;;;6.57;3.63;;;17.50;94.90;;;;;;5091236;28;20149;-85
2021/06/10 03:15:41;;;;;;;7.43;3.55;;;17.40;95.00;;;;;;5091108;28;20094;-86
2021/06/10 03:18:07;;;;;;;7.95;4.00;;;17.40;95.00;;;;;;5091024;28;20061;-86
2021/06/10 03:20:34;;;;;;;7.68;4.15;;;17.30;95.30;;;;;;5090733;28;20129;-86
2021/06/10 03:23:00;;;;;;;6.43;4.03;;;17.30;95.10;;;;;;5090991;28;20016;-86
2021/06/10 03:25:27;;;;;;;6.95;4.00;;;17.40;95.00;;;;;;5091027;28;20123;-85
2021/06/10 03:27:53;;;;;;;6.85;4.20;;;17.40;94.90;;;;;;5090932;28;20020;-86
2021/06/10 03:30:20;;;;;;;8.90;4.47;;;17.40;95.00;;;;;;5090194;28;20031;-86
2021/06/10 03:32:46;;;;;;;7.40;4.22;;;17.30;95.00;;;;;;5092172;28;20031;-86
2021/06/10 03:35:12;;;;;;;6.82;4.15;;;17.20;95.10;;;;;;5092074;28;20031;-86
2021/06/10 03:37:40;;;;;;;6.50;3.95;;;17.20;95.30;;;;;;5090643;28;20060;-86
2021/06/10 03:40:09;;;;;;;7.40;4.63;;;17.10;95.40;;;;;;5090300;28;20035;-85
2021/06/10 03:42:36;;;;;;;6.97;4.50;;;17.10;95.40;;;;;;5091932;28;20413;-86
2021/06/10 03:45:06;;;;;;;8.48;4.45;;;17.00;95.60;;;;;;5090730;28;20112;-86
2021/06/10 03:47:32;;;;;;;9.13;4.75;;;17.00;95.80;;;;;;5091917;28;20046;-86
2021/06/10 03:49:59;;;;;;;8.77;4.85;;;17.00;95.80;;;;;;5091426;28;20024;-85
2021/06/10 03:52:26;;;;;;;10.50;4.78;;;17.00;95.70;;;;;;5093280;28;20039;-84
2021/06/10 03:54:52;;;;;;;8.18;4.75;;;17.10;95.70;;;;;;5096239;28;20020;-86
2021/06/10 03:57:18;;;;;;;7.57;4.70;;;17.10;95.70;;;;;;5094834;28;20103;-85
2021/06/10 03:59:43;;;;;;;7.45;4.65;;;17.10;95.80;;;;;;5094219;28;20480;-86
2021/06/10 04:02:09;;;;;;;9.15;5.07;;;17.10;95.80;;;;;;5096026;28;20032;-86
2021/06/10 04:04:35;;;;;;;10.25;4.95;;;17.10;95.80;;;;;;5094594;28;20388;-86
2021/06/10 04:07:01;;;;;;;12.05;5.10;;;17.10;95.90;;;;;;5094710;28;20480;-86
2021/06/10 04:09:26;;;;;;;7.57;4.80;;;17.10;95.90;;;;;;5095233;28;20048;-86
2021/06/10 04:11:52;;;;;;;8.32;5.15;;;17.10;95.90;;;;;;5094452;28;20387;-85
2021/06/10 04:14:18;;;;;;;7.70;4.88;;;17.10;95.90;;;;;;5094484;28;20028;-85
2021/06/10 04:16:45;;;;;;;13.10;6.15;;;17.10;96.00;;;;;;5094394;28;20020;-84
2021/06/10 04:19:11;;;;;;;9.50;5.05;;;17.10;96.10;;;;;;5095129;28;20073;-86
2021/06/10 04:21:37;;;;;;;9.50;5.50;;;17.10;96.10;;;;;;5094631;28;20028;-86
2021/06/10 04:24:03;;;;;;;8.27;5.40;;;17.20;96.10;;;;;;5094497;28;20119;-86
2021/06/10 04:26:30;;;;;;;9.02;5.60;;;17.20;96.10;;;;;;5095573;28;20430;-86
2021/06/10 04:28:56;;;;;;;9.65;5.15;;;17.20;96.10;;;;;;5094859;28;20107;-86
2021/06/10 04:31:26;;;;;;;9.75;5.65;;;17.20;96.10;;;;;;5095662;28;20103;-86
2021/06/10 04:33:55;;;;;;;10.68;6.28;;;17.30;96.10;;;;;;5080475;28;20412;-86
2021/06/10 04:36:21;;;;;;;9.95;6.15;;;17.30;96.00;;;;;;5078155;28;20025;-86
2021/06/10 04:38:49;;;;;;;8.52;5.50;;;17.30;95.90;;;;;;5095240;28;20031;-86
2021/06/10 04:41:15;;;;;;;12.73;5.88;;;17.40;95.90;;;;;;5093826;28;20052;-86
2021/06/10 04:43:40;;;;;;;10.32;5.93;;;17.40;95.80;;;;;;5095639;28;20059;-85
2021/06/10 04:46:06;;;;;;;11.52;6.05;;;17.50;95.60;;;;;;5095522;28;20028;-85
2021/06/10 04:48:32;;;;;;;10.23;6.00;;;17.50;95.60;;;;;;5093732;28;20057;-86
2021/06/10 04:50:58;;;;;;;12.45;8.15;;;17.50;95.60;;;;;;5094690;28;20024;-87
2021/06/10 04:53:23;;;;;;;13.55;6.45;;;17.60;95.50;;;;;;5093864;28;20071;-86
2021/06/10 04:55:50;;;;;;;11.52;6.53;;;17.60;95.50;;;;;;5093935;28;20396;-85
2021/06/10 04:58:16;;;;;;;12.30;6.68;;;17.70;95.50;;;;;;5093654;28;20154;-86
2021/06/10 05:00:41;;;;;;;9.43;6.57;;;17.80;95.40;;;;;;5094437;28;20094;-86
2021/06/10 05:03:08;;;;;;;12.85;6.50;;;17.80;95.20;;;;;;5093254;28;20027;-86
2021/06/10 05:05:41;;;;;;;11.82;6.65;;;17.80;95.30;;;;;;5093134;28;20119;-86
2021/06/10 05:08:09;;;;;;;10.02;6.45;;;17.90;95.20;;;;;;5091920;28;20553;-85
2021/06/10 05:10:35;;;;;;;10.45;6.88;;;17.90;95.30;;;;;;5074760;28;20036;-85
2021/06/10 05:13:00;;;;;;;12.45;7.10;;;18.00;95.20;;;;;;5094735;28;20442;-86
2021/06/10 05:15:26;;;;;;;12.40;6.90;;;18.10;95.20;;;;;;5093535;28;20062;-86
2021/06/10 05:17:52;;;;;;;14.98;7.40;;;18.20;95.10;;;;;;5093740;28;20488;-85
2021/06/10 05:20:17;;;;;;;14.05;7.70;;;18.20;94.90;;;;;;5094410;28;20023;-86
2021/06/10 05:22:43;;;;;;;20.25;6.95;;;18.30;94.80;;;;;;5093446;28;20020;-85
2021/06/10 05:25:09;;;;;;;14.32;7.28;;;18.40;94.90;;;;;;5093292;28;20063;-85
2021/06/10 05:27:35;;;;;;;18.75;7.28;;;18.40;94.90;;;;;;5094643;28;20336;-86
2021/06/10 05:30:06;;;;;;;27.63;7.40;;;18.40;95.00;;;;;;5095396;28;20058;-84
2021/06/10 05:32:31;;;;;;;19.48;7.70;;;18.50;95.00;;;;;;5099834;28;20039;-84
2021/06/10 05:34:57;;;;;;;20.23;7.80;;;18.50;95.20;;;;;;5098684;28;20469;-83
2021/06/10 05:37:23;;;;;;;26.35;7.53;;;18.60;94.80;;;;;;5096555;28;20025;-83
2021/06/10 05:39:49;;;;;;;18.70;7.18;;;18.60;94.90;;;;;;5097026;28;20047;-83
2021/06/10 05:42:15;;;;;;;24.63;7.45;;;18.60;95.00;;;;;;5096432;28;20028;-84
2021/06/10 05:44:42;;;;;;;26.00;7.45;;;18.70;95.00;;;;;;5095715;28;20024;-83
2021/06/10 05:47:09;;;;;;;25.13;7.65;;;18.80;94.80;;;;;;5096647;28;20050;-84
2021/06/10 05:49:35;;;;;;;36.50;8.55;;;18.80;94.70;;;;;;5095512;28;20035;-83
2021/06/10 05:52:01;;;;;;;26.20;7.85;;;18.90;94.40;;;;;;5097516;28;20392;-84
2021/06/10 05:54:27;;;;;;;23.40;7.75;;;18.90;94.20;;;;;;5095592;28;20028;-84
2021/06/10 05:56:52;;;;;;;27.60;7.90;;;18.90;93.90;;;;;;5092673;28;20028;-85
2021/06/10 05:59:18;;;;;;;27.20;7.40;;;19.00;94.10;;;;;;5092361;28;20020;-84
2021/06/10 06:01:44;;;;;;;28.45;7.72;;;19.10;94.40;;;;;;5093252;28;20127;-84
2021/06/10 06:04:09;;;;;;;27.98;7.90;;;19.10;94.40;;;;;;5094598;28;20364;-85
2021/06/10 06:06:35;;;;;;;23.95;7.15;;;19.10;94.40;;;;;;5092500;28;20032;-84
2021/06/10 06:09:06;;;;;;;22.75;7.05;;;19.10;94.40;;;;;;5091871;28;20032;-84
2021/06/10 06:11:31;;;;;;;16.98;6.65;;;19.20;94.30;;;;;;5092162;28;20119;-84
2021/06/10 06:14:10;;;;;;;15.32;6.35;;;19.30;94.20;;;;;;5094998;28;20078;-83
2021/06/10 06:16:40;;;;;;;15.07;6.35;;;19.30;93.40;;;;;;5095367;28;20023;-83
2021/06/10 06:19:08;;;;;;;15.65;6.05;;;19.30;93.00;;;;;;5094387;28;20028;-84
2021/06/10 06:21:35;;;;;;;10.80;5.43;;;19.40;93.00;;;;;;5095302;28;20404;-83
2021/06/10 06:24:02;;;;;;;12.50;5.78;;;19.40;93.00;;;;;;5096698;28;20538;-85
2021/06/10 06:26:28;;;;;;;8.00;5.35;;;19.50;93.10;;;;;;5097041;28;20047;-83
2021/06/10 06:28:58;;;;;;;10.57;5.57;;;19.50;92.60;;;;;;5094213;28;20111;-84
2021/06/10 06:31:24;;;;;;;10.10;5.22;;;19.50;92.60;;;;;;5094600;28;20110;-83
2021/06/10 06:33:50;;;;;;;8.88;5.03;;;19.60;92.60;;;;;;5094848;28;20024;-83
2021/06/10 06:36:15;;;;;;;10.73;5.60;;;19.60;92.80;;;;;;5096000;28;20043;-83
2021/06/10 06:38:41;;;;;;;12.30;5.40;;;19.70;92.80;;;;;;5095969;28;20032;-84
2021/06/10 06:41:07;;;;;;;10.80;5.72;;;19.70;92.50;;;;;;5093386;28;20139;-84
2021/06/10 06:43:32;;;;;;;10.00;5.00;;;19.70;92.20;;;;;;5094722;28;20024;-83
2021/06/10 06:45:58;;;;;;;11.82;5.18;;;19.80;92.30;;;;;;5094128;28;20028;-84
2021/06/10 06:48:24;;;;;;;11.68;5.28;;;19.80;92.20;;;;;;5093968;28;20046;-84
2021/06/10 06:50:50;;;;;;;8.27;4.88;;;19.80;92.40;;;;;;5093630;28;20114;-84
2021/06/10 06:53:15;;;;;;;7.07;4.20;;;19.90;91.70;;;;;;5094344;28;20024;-85
2021/06/10 06:55:43;;;;;;;6.60;4.55;;;19.90;91.70;;;;;;5095326;28;20028;-84
2021/06/10 06:58:09;;;;;;;8.23;5.60;;;19.90;91.70;;;;;;5095435;28;20020;-83
2021/06/10 07:00:35;;;;;;;7.60;4.53;;;19.90;91.90;;;;;;5095239;28;20031;-83
2021/06/10 07:03:00;;;;;;;9.05;4.90;;;20.00;91.70;;;;;;5096210;28;20028;-84
2021/06/10 07:05:26;;;;;;;8.13;4.90;;;20.00;91.40;;;;;;5093488;28;20399;-83
2021/06/10 07:07:52;;;;;;;8.57;4.70;;;20.00;90.50;;;;;;5093164;28;20128;-84
2021/06/10 07:10:17;;;;;;;6.03;3.53;;;20.00;88.20;;;;;;5093198;28;20031;-85
2021/06/10 07:12:43;;;;;;;4.93;3.22;;;20.00;88.50;;;;;;5093400;28;20390;-83
2021/06/10 07:15:09;;;;;;;6.22;3.58;;;20.10;88.70;;;;;;5093649;28;20063;-84
2021/06/10 07:17:35;;;;;;;5.40;3.22;;;20.10;89.30;;;;;;5094869;28;20076;-84
2021/06/10 07:20:01;;;;;;;9.27;4.43;;;20.10;89.60;;;;;;5092773;28;20543;-84
2021/06/10 07:22:36;;;;;;;7.25;3.65;;;20.20;89.50;;;;;;5094720;28;20109;-84
2021/06/10 07:25:03;;;;;;;8.52;3.78;;;20.20;89.80;;;;;;5093085;28;20055;-85
2021/06/10 07:27:28;;;;;;;7.40;4.00;;;20.20;89.80;;;;;;5092943;28;20024;-84
2021/06/10 07:29:55;;;;;;;7.55;3.58;;;20.20;90.00;;;;;;5093120;28;20039;-84
2021/06/10 07:32:21;;;;;;;7.30;4.20;;;20.20;89.30;;;;;;5094708;28;20058;-84
2021/06/10 07:34:46;;;;;;;6.28;3.92;;;20.30;89.00;;;;;;5094677;28;20384;-84
2021/06/10 07:37:12;;;;;;;6.35;3.45;;;20.30;88.90;;;;;;5092932;28;20526;-83
2021/06/10 07:39:39;;;;;;;5.85;3.15;;;20.30;88.80;;;;;;5093779;28;20046;-83
2021/06/10 07:42:05;;;;;;;7.28;3.80;;;20.30;88.90;;;;;;5094580;28;20028;-85
2021/06/10 07:44:31;;;;;;;7.57;3.95;;;20.40;89.10;;;;;;5093397;28;20396;-84
2021/06/10 07:46:57;;;;;;;7.82;3.53;;;20.40;89.00;;;;;;5093543;28;20093;-86
2021/06/10 07:49:23;;;;;;;8.13;3.90;;;20.40;89.10;;;;;;5093779;28;20037;-83
2021/06/10 07:51:49;;;;;;;9.73;4.50;;;20.40;88.50;;;;;;5094518;28;20028;-85
2021/06/10 07:54:14;;;;;;;8.35;4.50;;;20.50;85.40;;;;;;5094834;28;20044;-84
2021/06/10 07:56:41;;;;;;;11.48;5.82;;;20.50;84.00;;;;;;5095198;28;20515;-83
2021/06/10 07:59:06;;;;;;;10.82;4.80;;;20.60;84.10;;;;;;5092504;28;20275;-83
2021/06/10 08:01:32;;;;;;;7.20;3.78;;;20.60;84.60;;;;;;5094796;28;20069;-83
2021/06/10 08:03:58;;;;;;;7.07;3.47;;;20.60;84.90;;;;;;5094605;28;20388;-83
2021/06/10 08:06:23;;;;;;;7.93;3.80;;;20.60;85.40;;;;;;5093386;28;20027;-84
2021/06/10 08:08:49;;;;;;;8.68;3.55;;;20.60;86.10;;;;;;5094146;28;20434;-84
2021/06/10 08:11:15;;;;;;;9.88;4.47;;;20.60;87.20;;;;;;5092906;28;20483;-84
2021/06/10 08:13:41;;;;;;;6.35;3.40;;;20.70;86.50;;;;;;5093827;28;20048;-85
2021/06/10 08:16:07;;;;;;;6.65;3.58;;;20.70;86.60;;;;;;5092710;28;20032;-84
2021/06/10 08:18:33;;;;;;;8.13;3.83;;;20.70;86.70;;;;;;5094615;28;20024;-83
2021/06/10 08:21:00;;;;;;;9.05;4.40;;;20.70;86.60;;;;;;5094349;28;20027;-83
2021/06/10 08:23:27;;;;;;;6.90;3.38;;;20.80;86.30;;;;;;5092586;28;20401;-84
2021/06/10 08:25:57;;;;;;;6.38;3.58;;;20.80;86.20;;;;;;5092581;28;20024;-84
2021/06/10 08:28:23;;;;;;;6.88;3.72;;;20.80;86.40;;;;;;5092654;28;20024;-84
2021/06/10 08:30:49;;;;;;;9.38;3.70;;;20.80;86.60;;;;;;5092529;28;20031;-84
2021/06/10 08:33:15;;;;;;;10.70;3.50;;;20.80;85.00;;;;;;5093919;28;20052;-83
2021/06/10 08:35:41;;;;;;;6.60;3.22;;;20.90;84.80;;;;;;5093211;28;20032;-84
2021/06/10 08:38:08;;;;;;;9.68;4.13;;;20.90;85.00;;;;;;5094389;28;20028;-83
2021/06/10 08:40:34;;;;;;;7.00;3.90;;;21.00;83.70;;;;;;5095954;28;20020;-84
2021/06/10 08:43:00;;;;;;;9.43;4.70;;;21.10;83.60;;;;;;5097482;28;20458;-83
2021/06/10 08:45:28;;;;;;;11.15;5.32;;;21.10;82.90;;;;;;5096032;28;20107;-83
2021/06/10 08:47:54;;;;;;;8.75;4.90;;;21.10;82.90;;;;;;5095626;28;20027;-83
2021/06/10 08:50:24;;;;;;;6.25;3.83;;;21.20;82.70;;;;;;5095540;28;20028;-83
2021/06/10 08:52:52;;;;;;;6.25;3.50;;;21.20;83.30;;;;;;5097642;28;20107;-84
2021/06/10 08:55:19;;;;;;;10.68;6.20;;;21.20;83.50;;;;;;5095392;28;20027;-83
2021/06/10 08:57:45;;;;;;;10.18;4.78;;;21.20;82.10;;;;;;5095532;28;20111;-83
2021/06/10 09:00:13;;;;;;;9.07;4.15;;;21.30;81.80;;;;;;5096545;28;20069;-84
2021/06/10 09:02:39;;;;;;;6.20;3.80;;;21.30;81.70;;;;;;5097377;28;20065;-85
2021/06/10 09:05:06;;;;;;;7.25;3.60;;;21.30;81.80;;;;;;5095491;28;20036;-84
2021/06/10 09:07:36;;;;;;;9.57;5.00;;;21.30;81.80;;;;;;5095492;28;20047;-85
2021/06/10 09:10:04;;;;;;;6.30;4.03;;;21.40;81.30;;;;;;5096928;28;20030;-83
2021/06/10 09:12:50;;;;;;;5.55;3.88;;;21.30;80.70;;;;;;5095576;28;20055;-83
2021/06/10 09:15:20;;;;;;;7.07;4.35;;;21.40;80.90;;;;;;5096845;28;20036;-84
2021/06/10 09:17:46;;;;;;;7.63;3.90;;;21.40;81.40;;;;;;5095234;28;20097;-83
2021/06/10 09:20:18;;;;;;;6.30;3.70;;;21.50;81.60;;;;;;5094707;28;20023;-83
2021/06/10 09:22:44;;;;;;;6.63;3.20;;;21.40;81.90;;;;;;5096565;28;20044;-84
2021/06/10 09:25:12;;;;;;;8.57;3.80;;;21.50;82.30;;;;;;5095013;28;20028;-84
2021/06/10 09:27:54;;;;;;;6.40;3.42;;;21.60;80.50;;;;;;5096083;28;20055;-83
2021/06/10 09:30:48;;;;;;;6.40;3.42;;;21.70;80.60;;;;;;5094277;28;20434;-84
2021/06/10 09:33:16;;;;;;;7.20;3.70;;;21.60;80.20;;;;;;5090522;28;20076;-83
2021/06/10 09:35:44;;;;;;;7.82;3.83;;;21.80;79.50;;;;;;5094924;28;20059;-84
2021/06/10 09:38:21;;;;;;;4.68;3.03;;;21.80;78.70;;;;;;5096012;28;20036;-83
2021/06/10 09:40:48;;;;;;;6.07;3.08;;;21.70;78.60;;;;;;5095652;28;20016;-83
2021/06/10 09:43:14;;;;;;;8.15;3.83;;;21.80;79.20;;;;;;5095984;28;20131;-83
2021/06/10 09:45:48;;;;;;;7.32;4.10;;;21.90;79.20;;;;;;5096910;28;20073;-83
2021/06/10 09:48:14;;;;;;;4.97;3.53;;;22.00;78.70;;;;;;5096224;28;20020;-84
2021/06/10 09:50:47;;;;;;;6.75;4.10;;;22.00;78.80;;;;;;5094995;28;20099;-84
2021/06/10 09:53:16;;;;;;;6.95;4.38;;;22.00;78.00;;;;;;5095416;28;20024;-84
2021/06/10 09:55:53;;;;;;;5.68;3.00;;;22.00;78.70;;;;;;5095209;28;20024;-83
2021/06/10 09:58:35;;;;;;;6.75;3.25;;;22.00;78.90;;;;;;5096113;28;20032;-83
2021/06/10 10:01:10;;;;;;;5.60;3.72;;;22.00;79.10;;;;;;5095241;28;20024;-83
2021/06/10 10:03:41;;;;;;;5.03;3.17;;;22.10;77.80;;;;;;5094239;28;20408;-83
2021/06/10 10:06:17;;;;;;;4.20;2.53;;;22.10;78.20;;;;;;5095266;28;20028;-83
2021/06/10 10:08:43;;;;;;;6.50;4.05;;;22.00;78.80;;;;;;5094590;28;20020;-83
2021/06/10 10:11:11;;;;;;;6.60;3.47;;;22.20;78.60;;;;;;5093453;28;20074;-84
2021/06/10 10:13:39;;;;;;;5.60;4.27;;;22.20;80.40;;;;;;5093764;28;20032;-83
2021/06/10 10:16:04;;;;;;;9.50;3.47;;;22.20;78.70;;;;;;5095412;28;20288;-84
2021/06/10 10:18:30;;;;;;;7.13;3.60;;;22.20;79.60;;;;;;5096065;28;20087;-85
2021/06/10 10:21:01;;;;;;;5.50;3.35;;;22.20;78.80;;;;;;5097322;28;20025;-86
2021/06/10 10:23:27;;;;;;;3.60;2.70;;;22.20;78.10;;;;;;5098809;28;20020;-85
2021/06/10 10:26:00;;;;;;;5.72;3.30;;;22.10;78.40;;;;;;5097949;28;20395;-83
2021/06/10 10:28:28;;;;;;;8.18;3.05;;;22.00;78.60;;;;;;5094637;28;20043;-85
2021/06/10 10:30:55;;;;;;;4.07;2.72;;;22.30;78.00;;;;;;5092879;28;20106;-83
2021/06/10 10:33:23;;;;;;;5.82;3.28;;;22.30;76.10;;;;;;5093042;28;20122;-83
2021/06/10 10:35:59;;;;;;;4.88;2.78;;;22.40;76.70;;;;;;5094242;28;20483;-84
2021/06/10 10:38:40;;;;;;;5.90;2.95;;;22.30;76.40;;;;;;5092716;28;20492;-84
2021/06/10 10:41:18;;;;;;;5.93;3.30;;;22.20;78.10;;;;;;5092477;28;20028;-83
2021/06/10 10:43:44;;;;;;;5.63;2.95;;;22.30;76.80;;;;;;5093045;28;20024;-83
2021/06/10 10:46:21;;;;;;;5.90;3.67;;;22.40;75.50;;;;;;5092779;28;20034;-83
2021/06/10 10:48:48;;;;;;;7.63;3.78;;;22.50;76.10;;;;;;5092242;28;20020;-84
2021/06/10 10:51:24;;;;;;;6.47;3.00;;;22.60;75.30;;;;;;5092298;28;20032;-83
2021/06/10 10:53:56;;;;;;;7.72;2.83;;;22.60;75.30;;;;;;5092571;28;20032;-83
2021/06/10 10:56:51;;;;;;;6.45;3.75;;;22.60;76.50;;;;;;5092325;28;20032;-83
2021/06/10 10:59:19;;;;;;;7.68;3.30;;;22.70;75.60;;;;;;5091622;28;20384;-83
2021/06/10 11:02:06;;;;;;;5.50;3.38;;;22.70;75.90;;;;;;5092635;28;20024;-83
2021/06/10 11:04:51;;;;;;;4.13;3.00;;;22.80;75.30;;;;;;5093391;28;20063;-83
2021/06/10 11:07:35;;;;;;;6.45;3.17;;;22.80;73.90;;;;;;5092085;28;20031;-84
2021/06/10 11:10:07;;;;;;;11.90;3.72;;;22.90;73.30;;;;;;5092762;28;20081;-83
2021/06/10 11:12:56;;;;;;;4.53;3.13;;;22.90;75.10;;;;;;5092911;28;20088;-83
2021/06/10 11:15:26;;;;;;;4.78;3.10;;;22.90;74.50;;;;;;5092781;28;20020;-84
2021/06/10 11:17:58;;;;;;;6.00;3.20;;;22.90;74.80;;;;;;5091269;28;20026;-85
2021/06/10 11:20:39;;;;;;;5.72;3.35;;;23.00;74.00;;;;;;5092043;28;20023;-84
2021/06/10 11:23:17;;;;;;;7.15;2.75;;;23.10;72.80;;;;;;5091289;28;20027;-83
2021/06/10 11:25:50;;;;;;;5.97;3.00;;;23.20;73.50;;;;;;5094931;28;20070;-84
2021/06/10 11:28:21;;;;;;;6.85;3.55;;;23.20;73.00;;;;;;5095197;28;20021;-85
2021/06/10 11:31:10;;;;;;;4.10;2.85;;;23.20;73.20;;;;;;5094320;28;20124;-83
2021/06/10 11:33:36;;;;;;;7.07;3.28;;;23.20;73.40;;;;;;5093940;28;20483;-85
2021/06/10 11:36:04;;;;;;;6.72;3.65;;;23.20;73.90;;;;;;5090907;28;20119;-84
2021/06/10 11:38:42;;;;;;;6.68;3.17;;;23.40;73.00;;;;;;5091396;28;20039;-85
2021/06/10 11:41:13;;;;;;;4.05;3.00;;;23.30;71.50;;;;;;5091673;28;20052;-84
2021/06/10 11:43:55;;;;;;;7.15;3.00;;;23.40;70.80;;;;;;5091005;28;20021;-84
2021/06/10 11:46:34;;;;;;;4.80;2.67;;;23.40;69.70;;;;;;5090949;28;20032;-85
2021/06/10 11:48:59;;;;;;;4.60;2.60;;;23.50;68.00;;;;;;5089798;28;20088;-85
2021/06/10 11:51:27;;;;;;;6.65;2.53;;;23.40;68.90;;;;;;5091757;28;20025;-85
2021/06/10 11:54:05;;;;;;;7.70;3.20;;;23.30;69.20;;;;;;5092454;28;20099;-85
2021/06/10 11:56:31;;;;;;;6.03;2.90;;;23.30;71.20;;;;;;5092834;28;20031;-85
2021/06/10 11:59:12;;;;;;;6.93;2.90;;;23.30;72.50;;;;;;5090989;28;20024;-85
2021/06/10 12:01:37;;;;;;;4.15;2.72;;;23.30;71.20;;;;;;5091424;28;20042;-85
2021/06/10 12:04:08;;;;;;;4.40;3.00;;;23.40;70.80;;;;;;5091286;28;20016;-85
2021/06/10 12:06:33;;;;;;;5.25;3.35;;;23.40;71.70;;;;;;5091227;28;20020;-85
2021/06/10 12:09:13;;;;;;;6.32;3.50;;;23.50;70.70;;;;;;5091194;28;20090;-85
2021/06/10 12:11:48;;;;;;;4.55;3.30;;;23.40;71.60;;;;;;5093625;28;20024;-85
2021/06/10 12:14:14;;;;;;;9.65;3.45;;;23.40;71.70;;;;;;5094045;28;20398;-85
2021/06/10 12:16:39;;;;;;;7.13;3.00;;;23.40;71.90;;;;;;5096307;28;20021;-86
2021/06/10 12:19:14;;;;;;;7.63;3.00;;;23.60;70.70;;;;;;5095530;28;20494;-86
2021/06/10 12:21:40;;;;;;;5.25;2.95;;;23.70;70.70;;;;;;5095348;28;20533;-85
2021/06/10 12:24:06;;;;;;;6.95;3.28;;;23.90;68.80;;;;;;5094974;28;20024;-85
2021/06/10 12:26:33;;;;;;;4.72;2.90;;;23.90;69.40;;;;;;5094797;28;20048;-85
2021/06/10 12:29:02;;;;;;;4.53;2.60;;;23.90;69.80;;;;;;5095683;28;20024;-85
2021/06/10 12:31:29;;;;;;;5.78;2.85;;;24.00;69.00;;;;;;5094818;28;20024;-85
2021/06/10 12:33:58;;;;;;;4.50;2.70;;;24.10;68.70;;;;;;5094893;28;20024;-85
2021/06/10 12:36:42;;;;;;;4.75;2.38;;;24.20;67.50;;;;;;5094753;28;20024;-85
2021/06/10 12:39:13;;;;;;;3.78;2.60;;;24.20;67.20;;;;;;5093601;28;20130;-85
2021/06/10 12:41:49;;;;;;;4.05;2.30;;;24.30;67.40;;;;;;5094299;28;20161;-85
2021/06/10 12:44:23;;;;;;;3.65;2.20;;;24.30;67.40;;;;;;5095043;28;20020;-85
2021/06/10 12:46:48;;;;;;;3.88;2.83;;;24.40;64.80;;;;;;5094410;28;20030;-85
2021/06/10 12:49:16;;;;;;;4.78;2.15;;;24.30;64.30;;;;;;5093644;28;20016;-84
2021/06/10 12:51:52;;;;;;;5.50;2.08;;;24.30;64.60;;;;;;5094226;28;20020;-85
2021/06/10 12:54:19;;;;;;;3.38;2.38;;;24.20;64.50;;;;;;5096225;28;20039;-85